Westport, Pennsylvania
Current Conditions -  °F | °C
As of 11:53 AM on Friday 28 Nov 2014 (Local Time) from KUNV Reporting Station
Broken Clouds Broken Clouds  
Wind Chill: 15°   Ceiling: 4100
Heat Index: 27°   Visibility: 10mi
Dew Point: 16°   Wind: 15mph
Humidity: 64%   Direction: 290°WNW
Pressure: 30.23"   Gusts: 21mph
Location:  41.3°N, 77.84°W
Report Text: KUNV 281653Z 29013G18KT 10SM BKN041 M03/M09 A3023
Loading
Personal Weather Stations






























Interactive Weather Map New forecast layout! Learn more

10-Day Weather Forecast

Advertisements
Track Severe Weather on mobile